sensor_id;sensor_type;location;lat;lon;timestamp;pressure;altitude;pressure_sealevel;temperature;humidity
33155;BME280;19511;42.682;23.332;2023-07-29T16:30:47;94813.84;;;28.71;68.89
33155;BME280;19511;42.682;23.332;2023-07-29T16:33:12;94760.03;;;28.16;73.04
33155;BME280;19511;42.682;23.332;2023-07-29T16:35:38;94815.00;;;28.43;71.69
33155;BME280;19511;42.682;23.332;2023-07-29T16:38:04;94809.00;;;28.47;68.18
33155;BME280;19511;42.682;23.332;2023-07-29T16:40:30;94821.28;;;28.36;67.17
33155;BME280;19511;42.682;23.332;2023-07-29T16:42:55;94821.81;;;28.34;68.94
33155;BME280;19511;42.682;23.332;2023-07-29T16:45:22;94808.66;;;28.12;67.00
33155;BME280;19511;42.682;23.332;2023-07-29T16:47:48;94826.56;;;28.26;67.15
33155;BME280;19511;42.682;23.332;2023-07-29T16:50:13;94841.56;;;28.27;67.40
33155;BME280;19511;42.682;23.332;2023-07-29T16:52:39;94829.19;;;28.24;68.77
33155;BME280;19511;42.682;23.332;2023-07-29T16:55:05;94781.66;;;28.00;68.53
33155;BME280;19511;42.682;23.332;2023-07-29T16:57:31;94845.31;;;28.16;69.68
33155;BME280;19511;42.682;23.332;2023-07-29T16:59:57;94848.25;;;28.10;69.72
33155;BME280;19511;42.682;23.332;2023-07-29T17:02:22;94845.50;;;27.99;71.01
33155;BME280;19511;42.682;23.332;2023-07-29T17:04:47;94844.50;;;27.96;71.34
33155;BME280;19511;42.682;23.332;2023-07-29T17:07:13;94844.34;;;27.89;69.82
33155;BME280;19511;42.682;23.332;2023-07-29T17:09:39;94848.31;;;27.80;69.58
33155;BME280;19511;42.682;23.332;2023-07-29T17:12:04;94851.97;;;27.75;71.00
33155;BME280;19511;42.682;23.332;2023-07-29T17:14:30;94845.44;;;27.55;72.68
33155;BME280;19511;42.682;23.332;2023-07-29T17:16:55;94860.94;;;27.54;71.66
33155;BME280;19511;42.682;23.332;2023-07-29T17:19:21;94857.97;;;27.41;75.75
33155;BME280;19511;42.682;23.332;2023-07-29T17:21:47;94861.16;;;27.31;75.69
33155;BME280;19511;42.682;23.332;2023-07-29T17:24:12;94868.22;;;27.19;78.08
33155;BME280;19511;42.682;23.332;2023-07-29T17:26:37;94846.69;;;26.99;79.38
33155;BME280;19511;42.682;23.332;2023-07-29T17:29:03;94866.03;;;27.00;79.67
33155;BME280;19511;42.682;23.332;2023-07-29T17:31:32;94875.31;;;27.01;79.33
33155;BME280;19511;42.682;23.332;2023-07-29T17:34:00;94850.69;;;26.79;80.00
33155;BME280;19511;42.682;23.332;2023-07-29T17:36:25;94871.78;;;26.89;80.08
33155;BME280;19511;42.682;23.332;2023-07-29T17:38:51;94874.69;;;26.78;83.17
33155;BME280;19511;42.682;23.332;2023-07-29T17:41:16;94859.28;;;26.62;85.06
33155;BME280;19511;42.682;23.332;2023-07-29T17:43:42;94812.09;;;26.22;84.36
33155;BME280;19511;42.682;23.332;2023-07-29T17:46:12;94880.44;;;26.61;85.44
33155;BME280;19511;42.682;23.332;2023-07-29T17:48:38;94869.97;;;26.44;86.87
33155;BME280;19511;42.682;23.332;2023-07-29T17:51:05;94835.06;;;26.13;86.37
33155;BME280;19511;42.682;23.332;2023-07-29T17:53:30;94870.50;;;26.43;85.66
33155;BME280;19511;42.682;23.332;2023-07-29T17:55:56;94865.38;;;26.35;86.83
33155;BME280;19511;42.682;23.332;2023-07-29T17:58:21;94891.09;;;26.49;87.66
33155;BME280;19511;42.682;23.332;2023-07-29T18:00:48;94882.31;;;26.47;88.26
33155;BME280;19511;42.682;23.332;2023-07-29T18:03:14;94883.44;;;26.27;89.81
33155;BME280;19511;42.682;23.332;2023-07-29T18:05:39;94797.38;;;25.54;92.27
33155;BME280;19511;42.682;23.332;2023-07-29T18:08:04;94889.19;;;25.98;94.44
33155;BME280;19511;42.682;23.332;2023-07-29T18:10:30;94900.56;;;25.75;94.95
33155;BME280;19511;42.682;23.332;2023-07-29T18:12:55;94884.66;;;25.50;95.91
33155;BME280;19511;42.682;23.332;2023-07-29T18:15:21;94900.88;;;25.38;97.39
33155;BME280;19511;42.682;23.332;2023-07-29T18:17:46;94893.91;;;25.16;98.06
33155;BME280;19511;42.682;23.332;2023-07-29T18:20:12;94905.72;;;25.03;99.76
33155;BME280;19511;42.682;23.332;2023-07-29T18:22:37;94906.22;;;24.96;100.00
33155;BME280;19511;42.682;23.332;2023-07-29T18:25:03;94865.75;;;24.50;100.00
33155;BME280;19511;42.682;23.332;2023-07-29T18:27:28;94926.00;;;24.79;100.00
33155;BME280;19511;42.682;23.332;2023-07-29T18:29:54;94883.47;;;24.45;100.00
33155;BME280;19511;42.682;23.332;2023-07-29T18:32:19;94929.31;;;24.66;100.00
33155;BME280;19511;42.682;23.332;2023-07-29T18:34:45;94914.06;;;24.46;100.00
33155;BME280;19511;42.682;23.332;2023-07-29T18:37:10;94931.28;;;24.49;100.00
33155;BME280;19511;42.682;23.332;2023-07-29T18:39:35;94917.88;;;24.26;100.00
33155;BME280;19511;42.682;23.332;2023-07-29T18:42:01;94926.06;;;24.24;100.00
33155;BME280;19511;42.682;23.332;2023-07-29T18:44:26;94936.34;;;24.22;100.00
33155;BME280;19511;42.682;23.332;2023-07-29T18:46:52;94933.97;;;24.09;100.00
33155;BME280;19511;42.682;23.332;2023-07-29T18:49:17;94933.91;;;23.98;100.00
33155;BME280;19511;42.682;23.332;2023-07-29T18:51:43;94942.03;;;23.90;100.00
33155;BME280;19511;42.682;23.332;2023-07-29T18:54:08;94869.63;;;23.43;100.00
33155;BME280;19511;42.682;23.332;2023-07-29T18:56:34;94928.09;;;23.80;100.00
33155;BME280;19511;42.682;23.332;2023-07-29T18:58:59;94934.56;;;23.87;100.00
33155;BME280;19511;42.682;23.332;2023-07-29T19:01:25;94931.66;;;23.75;100.00
33155;BME280;19511;42.682;23.332;2023-07-29T19:03:50;94892.19;;;23.43;100.00
33155;BME280;19511;42.682;23.332;2023-07-29T19:06:16;94938.09;;;23.76;100.00
33155;BME280;19511;42.682;23.332;2023-07-29T19:08:42;94934.97;;;23.68;100.00
33155;BME280;19511;42.682;23.332;2023-07-29T19:11:09;94955.22;;;23.67;100.00
33155;BME280;19511;42.682;23.332;2023-07-29T19:13:34;94949.84;;;23.63;100.00
33155;BME280;19511;42.682;23.332;2023-07-29T19:16:00;94954.69;;;23.62;100.00
33155;BME280;19511;42.682;23.332;2023-07-29T19:18:32;94962.16;;;23.66;100.00
33155;BME280;19511;42.682;23.332;2023-07-29T19:20:57;94951.84;;;23.57;100.00
33155;BME280;19511;42.682;23.332;2023-07-29T19:23:23;94942.78;;;23.47;100.00
33155;BME280;19511;42.682;23.332;2023-07-29T19:25:49;94889.38;;;23.11;100.00
33155;BME280;19511;42.682;23.332;2023-07-29T19:28:16;94912.59;;;23.27;100.00
33155;BME280;19511;42.682;23.332;2023-07-29T19:30:41;94949.19;;;23.47;100.00
33155;BME280;19511;42.682;23.332;2023-07-29T19:33:10;94944.56;;;23.44;100.00
33155;BME280;19511;42.682;23.332;2023-07-29T19:35:36;94955.84;;;23.44;100.00
33155;BME280;19511;42.682;23.332;2023-07-29T19:38:02;94961.50;;;23.44;100.00
33155;BME280;19511;42.682;23.332;2023-07-29T19:40:27;94954.28;;;23.43;100.00
33155;BME280;19511;42.682;23.332;2023-07-29T19:42:54;94894.00;;;23.14;100.00
33155;BME280;19511;42.682;23.332;2023-07-29T19:45:20;94946.56;;;23.38;100.00
33155;BME280;19511;42.682;23.332;2023-07-29T19:47:46;94952.94;;;23.33;100.00
33155;BME280;19511;42.682;23.332;2023-07-29T19:50:14;94947.47;;;23.24;100.00
33155;BME280;19511;42.682;23.332;2023-07-29T19:52:40;94926.53;;;23.10;100.00
33155;BME280;19511;42.682;23.332;2023-07-29T19:55:07;94945.59;;;23.15;100.00
33155;BME280;19511;42.682;23.332;2023-07-29T19:57:32;94918.97;;;22.95;100.00
33155;BME280;19511;42.682;23.332;2023-07-29T20:00:00;94961.94;;;23.11;100.00
33155;BME280;19511;42.682;23.332;2023-07-29T20:02:27;94961.44;;;23.12;100.00
33155;BME280;19511;42.682;23.332;2023-07-29T20:05:08;94943.16;;;23.02;100.00
33155;BME280;19511;42.682;23.332;2023-07-29T20:07:34;94957.25;;;23.02;100.00
33155;BME280;19511;42.682;23.332;2023-07-29T20:10:31;94967.69;;;22.96;100.00
33155;BME280;19511;42.682;23.332;2023-07-29T20:12:59;94968.41;;;22.91;100.00
33155;BME280;19511;42.682;23.332;2023-07-29T20:15:32;94960.84;;;23.03;100.00
33155;BME280;19511;42.682;23.332;2023-07-29T20:17:58;94968.94;;;23.15;100.00
33155;BME280;19511;42.682;23.332;2023-07-29T20:20:25;94969.72;;;23.16;100.00
33155;BME280;19511;42.682;23.332;2023-07-29T20:22:51;94959.06;;;23.05;100.00
33155;BME280;19511;42.682;23.332;2023-07-29T20:25:17;94971.47;;;23.13;100.00
33155;BME280;19511;42.682;23.332;2023-07-29T20:27:42;94974.97;;;23.08;100.00
33155;BME280;19511;42.682;23.332;2023-07-29T20:30:10;94974.81;;;22.91;100.00
33155;BME280;19511;42.682;23.332;2023-07-29T20:32:36;94979.13;;;22.87;100.00
33155;BME280;19511;42.682;23.332;2023-07-29T20:35:02;94972.59;;;22.75;100.00
33155;BME280;19511;42.682;23.332;2023-07-29T20:37:28;94965.47;;;22.59;100.00
33155;BME280;19511;42.682;23.332;2023-07-29T20:39:53;94976.50;;;22.57;100.00
33155;BME280;19511;42.682;23.332;2023-07-29T20:42:19;94973.34;;;22.49;100.00
33155;BME280;19511;42.682;23.332;2023-07-29T20:44:45;94955.13;;;22.29;100.00
33155;BME280;19511;42.682;23.332;2023-07-29T20:47:10;94963.88;;;22.31;100.00
33155;BME280;19511;42.682;23.332;2023-07-29T20:49:36;94951.59;;;22.14;100.00
33155;BME280;19511;42.682;23.332;2023-07-29T20:52:03;94951.81;;;22.10;100.00
33155;BME280;19511;42.682;23.332;2023-07-29T20:54:28;94936.88;;;22.04;100.00
33155;BME280;19511;42.682;23.332;2023-07-29T20:56:54;94953.84;;;22.10;100.00
33155;BME280;19511;42.682;23.332;2023-07-29T20:59:19;94961.91;;;22.17;100.00
33155;BME280;19511;42.682;23.332;2023-07-29T21:01:45;94962.31;;;22.10;100.00
33155;BME280;19511;42.682;23.332;2023-07-29T21:04:10;94952.94;;;21.98;100.00
33155;BME280;19511;42.682;23.332;2023-07-29T21:06:36;94962.34;;;21.95;100.00
33155;BME280;19511;42.682;23.332;2023-07-29T21:09:03;94963.91;;;21.96;100.00
33155;BME280;19511;42.682;23.332;2023-07-29T21:11:30;94968.97;;;21.92;100.00
33155;BME280;19511;42.682;23.332;2023-07-29T21:13:55;94967.03;;;21.98;100.00
33155;BME280;19511;42.682;23.332;2023-07-29T21:16:21;94967.59;;;22.02;100.00
33155;BME280;19511;42.682;23.332;2023-07-29T21:18:47;94911.59;;;21.53;100.00
33155;BME280;19511;42.682;23.332;2023-07-29T21:21:13;94968.13;;;21.85;100.00
33155;BME280;19511;42.682;23.332;2023-07-29T21:23:38;94974.03;;;21.88;100.00
33155;BME280;19511;42.682;23.332;2023-07-29T21:26:08;94974.72;;;21.82;100.00
33155;BME280;19511;42.682;23.332;2023-07-29T21:28:34;94942.84;;;21.56;100.00
33155;BME280;19511;42.682;23.332;2023-07-29T21:31:06;94985.13;;;21.76;100.00
33155;BME280;19511;42.682;23.332;2023-07-29T21:33:32;94979.13;;;21.68;100.00
33155;BME280;19511;42.682;23.332;2023-07-29T21:36:03;94984.75;;;21.68;100.00
33155;BME280;19511;42.682;23.332;2023-07-29T21:38:29;94980.50;;;21.58;100.00
33155;BME280;19511;42.682;23.332;2023-07-29T21:40:55;94976.63;;;21.56;100.00
33155;BME280;19511;42.682;23.332;2023-07-29T21:43:22;94972.91;;;21.49;100.00
33155;BME280;19511;42.682;23.332;2023-07-29T21:45:49;94985.72;;;21.50;100.00
33155;BME280;19511;42.682;23.332;2023-07-29T21:48:29;94978.94;;;21.42;100.00
33155;BME280;19511;42.682;23.332;2023-07-29T21:50:58;94981.75;;;21.42;100.00
33155;BME280;19511;42.682;23.332;2023-07-29T21:53:24;94974.78;;;21.37;100.00
33155;BME280;19511;42.682;23.332;2023-07-29T21:55:50;94993.47;;;21.41;100.00
33155;BME280;19511;42.682;23.332;2023-07-29T21:58:21;94986.34;;;21.40;100.00
33155;BME280;19511;42.682;23.332;2023-07-29T22:00:54;94997.28;;;21.37;100.00
33155;BME280;19511;42.682;23.332;2023-07-29T22:03:19;94999.13;;;21.26;100.00
33155;BME280;19511;42.682;23.332;2023-07-29T22:05:45;94993.13;;;21.18;100.00
33155;BME280;19511;42.682;23.332;2023-07-29T22:08:11;94986.81;;;21.08;100.00
33155;BME280;19511;42.682;23.332;2023-07-29T22:10:42;94985.44;;;21.03;100.00
33155;BME280;19511;42.682;23.332;2023-07-29T22:13:10;94982.06;;;20.99;100.00
33155;BME280;19511;42.682;23.332;2023-07-29T22:15:36;94987.19;;;21.01;100.00
33155;BME280;19511;42.682;23.332;2023-07-29T22:18:03;94982.63;;;20.88;100.00
33155;BME280;19511;42.682;23.332;2023-07-29T22:20:28;94922.47;;;20.56;100.00
33155;BME280;19511;42.682;23.332;2023-07-29T22:22:54;94982.63;;;20.88;100.00
33155;BME280;19511;42.682;23.332;2023-07-29T22:25:20;94984.09;;;20.84;100.00
33155;BME280;19511;42.682;23.332;2023-07-29T22:27:48;94988.44;;;20.85;100.00
33155;BME280;19511;42.682;23.332;2023-07-29T22:30:14;94978.34;;;20.78;100.00
33155;BME280;19511;42.682;23.332;2023-07-29T22:32:41;94979.13;;;20.79;100.00
33155;BME280;19511;42.682;23.332;2023-07-29T22:35:06;94932.25;;;20.46;100.00
33155;BME280;19511;42.682;23.332;2023-07-29T22:37:32;94987.16;;;20.71;100.00
33155;BME280;19511;42.682;23.332;2023-07-29T22:39:58;95000.88;;;20.69;100.00
33155;BME280;19511;42.682;23.332;2023-07-29T22:42:24;94985.63;;;20.61;100.00
33155;BME280;19511;42.682;23.332;2023-07-29T22:44:50;94988.94;;;20.59;100.00
33155;BME280;19511;42.682;23.332;2023-07-29T22:47:15;95002.50;;;20.61;100.00
33155;BME280;19511;42.682;23.332;2023-07-29T22:49:44;94998.81;;;20.54;100.00
33155;BME280;19511;42.682;23.332;2023-07-29T22:52:10;94997.44;;;20.50;100.00
33155;BME280;19511;42.682;23.332;2023-07-29T22:54:36;94970.94;;;20.27;100.00
33155;BME280;19511;42.682;23.332;2023-07-29T22:57:02;94994.22;;;20.42;100.00
33155;BME280;19511;42.682;23.332;2023-07-29T22:59:27;94997.97;;;20.39;100.00
33155;BME280;19511;42.682;23.332;2023-07-29T23:01:56;94999.53;;;20.40;100.00
33155;BME280;19511;42.682;23.332;2023-07-29T23:04:22;94998.38;;;20.32;100.00
33155;BME280;19511;42.682;23.332;2023-07-29T23:06:50;94999.13;;;20.32;100.00
33155;BME280;19511;42.682;23.332;2023-07-29T23:09:16;94946.38;;;19.88;100.00
33155;BME280;19511;42.682;23.332;2023-07-29T23:11:45;95004.69;;;20.17;100.00
33155;BME280;19511;42.682;23.332;2023-07-29T23:14:10;95007.69;;;20.14;100.00
33155;BME280;19511;42.682;23.332;2023-07-29T23:16:36;94999.78;;;20.03;100.00
33155;BME280;19511;42.682;23.332;2023-07-29T23:19:02;95005.72;;;20.05;100.00
33155;BME280;19511;42.682;23.332;2023-07-29T23:21:29;95015.06;;;20.02;100.00
33155;BME280;19511;42.682;23.332;2023-07-29T23:23:55;95009.63;;;19.98;100.00
33155;BME280;19511;42.682;23.332;2023-07-29T23:26:20;94997.56;;;19.83;100.00
33155;BME280;19511;42.682;23.332;2023-07-29T23:28:46;95007.03;;;19.85;100.00
33155;BME280;19511;42.682;23.332;2023-07-29T23:31:12;94996.91;;;19.79;100.00
33155;BME280;19511;42.682;23.332;2023-07-29T23:33:37;95003.78;;;19.78;100.00
33155;BME280;19511;42.682;23.332;2023-07-29T23:36:03;95010.81;;;19.73;100.00
33155;BME280;19511;42.682;23.332;2023-07-29T23:38:29;94996.22;;;19.60;100.00
33155;BME280;19511;42.682;23.332;2023-07-29T23:40:54;95000.88;;;19.63;100.00
33155;BME280;19511;42.682;23.332;2023-07-29T23:43:20;95011.94;;;19.66;100.00
33155;BME280;19511;42.682;23.332;2023-07-29T23:45:45;94993.28;;;19.54;100.00
33155;BME280;19511;42.682;23.332;2023-07-29T23:48:11;95001.53;;;19.57;100.00
33155;BME280;19511;42.682;23.332;2023-07-29T23:50:43;95005.94;;;19.49;100.00
33155;BME280;19511;42.682;23.332;2023-07-29T23:53:10;94990.84;;;19.47;100.00
33155;BME280;19511;42.682;23.332;2023-07-29T23:55:36;95012.09;;;19.63;100.00
33155;BME280;19511;42.682;23.332;2023-07-29T23:58:01;95011.19;;;19.56;100.00
